Archival Weather

Tokyo Intl

Tokyo, Japan (RJTT)

Report from: Saturday, March 18, 2023 5:30 PM JST
Current time: Monday, June 17, 2024 7:00 PM JST

Current weather – Weather history – Daily summaries
Weather forecast

Present weatherLight rain
Temperature9.0°C (48.2°F)
Wind chill4.7°C (40.5°F)
Dew point8.0°C (46.4°F)
Winds 21 kts (10.8 m/s, 24.2 mph) North (10°)
Visibility4.3 mi. (7 km)
Clouds Few clouds 500 ft. (152 m)
Few clouds 500 ft. (152 m)
Ceiling: Broken clouds 800 ft. (244 m)
Scattered clouds 1,200 ft. (366 m)
Broken clouds 3,000 ft. (914 m)
Altimeter29.80 in.Hg (1009 mB)
Precip. events Began 7:43 PM
Relative humidity93 %
Density altitude-421 ft. (-128 m)
Remarks Northeast
Flight conditions Instrument Meteorological Conditions
Raw dataRJTT 180830Z 01021KT 7000 -RA FEW005 SCT012 BKN030 09/08 Q1009 TEMPO FEW005 BKN008 RMK 1ST005 4ST012 7SC030 A2979 MOD TURB OBS AT 0800Z 5NM NE XAC FL200 BY B763
An error has occurred. This application may no longer respond until reloaded. Reload 🗙